Bardai Zougra Airport

Jump to: basic info | weather | comments

Related pages: nearby airports | nearby navaids | notams | map

Basic information (top)

Codes: FTTZ
Location: lon 21.450001, lat 17.049999, elev 3,524 ft / 1,074 m msl
Status: small_airport

Weather (top)

Current conditions for Faya Largeau Airport 242nm (448km) SSE (rec'd 2014/09/18 07:00Z):

FTTY 180700Z 04019KT 5000 HZ SKC 32/05 Q1014

Airport forecast for Kufra Airport 383nm (710km) ENE (rec'd 2014/09/18 18:00Z):

TAF HLKF 181700Z 1818/1918 30010KT CAVOK 
      BECMG 1820/1822 36014KT 8000 NSC 
      BECMG 1904/1906 06012KT CAVOK 
      BECMG 1912/1914 36014KT 

Latest comments (top)

No comments yet for Bardai Zougra Airport

More... (top)

See also NOTAMs and nearby airports and navaids, or visit the Bardai Zougra Airport page at the main OurAirports website..